Flight Track Log - Related Links

Times and Time Zones

All times are in EDT time to prevent confusion due to time zone crossing. See the EJA101 flight status page for this flight to view local times or setup timezone preferences in your user account.

Time Position Orientation Groundspeed Altitude Reporting Facility
EDT Latitude Longitude Course Direction KTS MPH feet Rate Location/Type
Sun 04:01:46 PM 26.7569 -80.1742 39° Northeast 211 243 3,700  Level Miami Center
Sun 04:03:46 PM 26.8553 -80.0839 39° Northeast 241 277 10,800 3,100 Climbing Miami Center
Sun 04:04:46 PM 26.8744 -79.9725 79° East 351 404 13,000 2,100 Climbing Miami Center
Sun 04:05:46 PM 26.8981 -79.8406 79° East 402 463 15,000 1,050 Climbing Miami Center
Sun 04:06:46 PM 26.9386 -79.6925 73° East 440 506 15,100 1,150 Climbing Miami Center
Sun 04:07:46 PM 27.0097 -79.5775 55° Northeast 441 507 17,300 2,400 Climbing Miami Center
Sun 04:08:46 PM 27.0869 -79.4581 54° Northeast 457 526 19,900 2,500 Climbing Miami Center
Sun 04:09:46 PM 27.1600 -79.3453 54° Northeast 480 552 22,300 1,550 Climbing Miami Center
Sun 04:10:46 PM 27.2458 -79.2139 54° Northeast 504 580 23,000 350 Climbing Miami Center
Sun 04:11:46 PM 27.3378 -79.0686 55° Northeast 518 596 23,000 700 Level Miami Center
Sun 04:12:46 PM 27.4333 -78.9556 46° Northeast 513 590 24,400 1,850 Climbing Miami Center
Sun 04:13:46 PM 27.5569 -78.9322 10° North 482 555 26,700 2,150 Climbing Miami Center
Sun 04:14:46 PM 27.6994 -78.9089 North 501 577 28,700 2,300 Climbing Miami Center
Sun 04:15:46 PM 27.8625 -78.8861 North 525 604 31,300 2,150 Climbing Miami Center
Sun 04:16:46 PM 28.0069 -78.8675 North 525 604 33,000 2,150 Climbing Miami Center
Sun 04:17:46 PM 28.1594 -78.8467 North 525 604 35,600 2,133 Climbing Miami Center
Sun 04:19:46 PM 28.4419 -78.8044 North 519 597 39,400 1,633 Climbing Miami Center
Sun 04:20:46 PM 28.5883 -78.7856 North 525 604 40,500 750 Climbing Miami Center
Sun 04:21:46 PM 28.7264 -78.7644 North 520 598 40,900 250 Climbing Miami Center
Sun 04:22:46 PM 28.8747 -78.7431 North 520 598 41,000 50 Climbing Miami Center
Sun 04:23:46 PM 29.0169 -78.7242 North 520 598 41,000 -50 Level Miami Center
Sun 04:24:46 PM 29.1611 -78.7028 North 525 604 40,900 -50 Descending Miami Center
Sun 04:25:46 PM 29.2992 -78.6767 North 515 593 40,900 50 Level Miami Center
Sun 04:26:46 PM 29.4517 -78.6625 North 521 600 41,000  Climbing Miami Center
Sun 04:27:46 PM 29.5958 -78.6411 North 517 595 40,900 -50 Descending Miami Center
Sun 04:28:46 PM 29.7442 -78.6244 23° Northeast 523 602 40,900 50 Level Miami Center
Sun 04:29:46 PM 29.8903 -78.6053 North 523 602 41,000  Climbing Miami Center
Sun 04:30:39 PM 30.0119 -78.5778 11° North 539 620 40,900 -53 Descending Jacksonville Center
Sun 04:31:39 PM 30.1450 -78.5644 North 522 601 40,900 50 Level Jacksonville Center
Sun 04:32:39 PM 30.2964 -78.5383 North 510 587 41,000 50 Climbing Jacksonville Center
Sun 04:33:39 PM 30.4461 -78.5197 North 522 601 41,000  Level Jacksonville Center
Sun 04:34:39 PM 30.5914 -78.4936 North 522 601 41,000  Level Jacksonville Center
Sun 04:35:39 PM 30.7344 -78.4678 North 522 601 41,000  Level Jacksonville Center
Sun 04:37:00 PM 30.9016 -78.4301 North  Level FlightAware
Sun 04:37:39 PM 31.0294 -78.4222 North 528 608 41,000  Level Jacksonville Center
Sun 04:38:39 PM 31.1747 -78.4008 North 528 608 40,900  Descending Jacksonville Center
Sun 04:39:39 PM 31.3258 -78.3694 10° North 533 613 41,000 50 Climbing Jacksonville Center
Sun 04:40:39 PM 31.4714 -78.3475 North 533 613 41,000  Level Jacksonville Center
Sun 04:41:39 PM 31.6144 -78.3261 North 533 613 41,000 -50 Level Jacksonville Center
Sun 04:42:39 PM 31.7619 -78.3017 North 533 613 40,900 -50 Descending Jacksonville Center
Sun 04:43:39 PM 31.9072 -78.2772 North 533 613 40,900 50 Level Jacksonville Center
Sun 04:44:39 PM 32.0525 -78.2553 North 533 613 41,000  Climbing Jacksonville Center
Sun 04:46:39 PM 32.3406 -78.2039 North 523 602 40,900  Descending Jacksonville Center
Sun 04:47:39 PM 32.4881 -78.1814 North 523 602 41,000 50 Climbing Jacksonville Center
Sun 04:48:39 PM 32.6311 -78.1542 North 518 596 41,000 -50 Level Jacksonville Center
Sun 04:49:39 PM 32.7742 -78.1344 North 518 596 40,900  Descending Jacksonville Center
Sun 04:50:39 PM 32.9172 -78.1094 North 518 596 41,000 50 Climbing Jacksonville Center
Sun 04:51:39 PM 33.0606 -78.0869 North 518 596 41,000  Level Jacksonville Center
Sun 04:52:39 PM 33.2036 -78.0644 North 518 596 41,000  Level Jacksonville Center
Sun 04:53:39 PM 33.3467 -78.0417 North 518 596 41,000 -64 Level Jacksonville Center
Sun 04:54:13 PM 33.4253 -78.0300 North 514 592 40,900  Descending Washington Center
Sun 04:55:14 PM 33.5675 -78.0042 North 509 586 41,000 49 Climbing Washington Center
Sun 04:56:15 PM 33.7097 -77.9833 North 509 586 41,000 -50 Level Washington Center
Sun 04:57:15 PM 33.8522 -77.9575 North 509 586 40,900  Descending Washington Center
Sun 04:58:14 PM 33.9864 -77.9311 North 515 593 41,000 50 Climbing Washington Center
Sun 04:59:14 PM 34.1139 -77.9147 North 498 573 41,000  Level Washington Center
Sun 05:00:15 PM 34.2458 -77.8908 North 481 554 41,000  Level Washington Center
Sun 05:01:13 PM 34.3794 -77.8769 North 475 547 41,000  Level Washington Center
Sun 05:02:14 PM 34.5111 -77.8756 360° North 475 547 41,000  Level Washington Center
Sun 05:03:15 PM 34.6403 -77.8742 North 468 539 41,000  Level Washington Center
Sun 05:04:15 PM 34.7656 -77.8725 North 457 526 41,000  Level Washington Center
Sun 05:05:16 PM 34.9056 -77.8664 North 457 526 41,000  Level Washington Center
Sun 05:06:13 PM 35.0328 -77.8647 North 457 526 41,000  Level Washington Center
Sun 05:07:14 PM 35.1622 -77.8608 North 457 526 41,000  Level Washington Center
Sun 05:08:15 PM 35.2936 -77.8594 360° North 457 526 41,000  Level Washington Center
Sun 05:09:13 PM 35.4211 -77.8581 North 457 526 41,000  Level Washington Center
Sun 05:10:13 PM 35.5483 -77.8564 North 457 526 41,000  Level Washington Center
Sun 05:11:14 PM 35.6778 -77.8550 360° North 457 526 41,000  Level Washington Center
Sun 05:12:14 PM 35.8031 -77.8533 North 457 526 41,000  Level Washington Center
Sun 05:13:15 PM 35.9344 -77.8494 North 457 526 41,000  Level Washington Center
Sun 05:14:15 PM 36.0347 -77.8522 359° North 457 526 41,000  Level Washington Center
Sun 05:15:15 PM 36.1850 -77.8489 North 457 526 41,000  Level Washington Center
Sun 05:16:13 PM 36.3164 -77.8475 360° North 457 526 41,000  Level Washington Center
Sun 05:17:14 PM 36.4292 -77.8456 North 457 526 41,000  Level Washington Center
Sun 05:18:15 PM 36.5583 -77.8442 360° North 452 520 41,000  Level Washington Center
Sun 05:19:16 PM 36.6836 -77.8425 North 452 520 41,000  Level Washington Center
Sun 05:20:13 PM 36.8108 -77.8411 North 457 526 41,000  Level Washington Center
Sun 05:21:14 PM 36.9425 -77.8397 360° North 462 532 41,000  Level Washington Center
Sun 05:22:15 PM 37.0697 -77.8356 North 457 526 41,000  Level Washington Center
Sun 05:23:13 PM 37.1956 -77.8056 11° North 457 526 41,000  Level Washington Center
Sun 05:24:14 PM 37.3181 -77.7175 30° Northeast 464 534 41,000  Level Washington Center
Sun 05:26:16 PM 37.5650 -77.5489 28° Northeast 497 572 41,000  Level Washington Center
Sun 05:27:13 PM 37.6875 -77.4550 31° Northeast 508 585 41,000  Level Washington Center
Sun 05:28:14 PM 37.7997 -77.3447 38° Northeast 508 585 41,000  Level Washington Center
Sun 05:29:15 PM 37.9117 -77.2367 37° Northeast 508 585 41,000 -295 Level Washington Center
Sun 05:30:16 PM 38.0258 -77.1286 37° Northeast 508 585 40,400 -1,652 Descending Washington Center
Sun 05:32:13 PM 38.2325 -76.9292 37° Northeast 474 545 36,100 -2,225 Descending Washington Center
Sun 05:33:14 PM 38.3400 -76.8281 36° Northeast 451 519 33,800 -2,132 Descending Washington Center
Sun 05:34:14 PM 38.4411 -76.7289 38° Northeast 445 512 31,800 -2,033 Descending Washington Center
Sun 05:35:15 PM 38.5442 -76.6297 37° Northeast 445 512 29,700 -1,967 Descending Washington Center
Sun 05:36:16 PM 38.6408 -76.5353 37° Northeast 445 512 27,800 -1,831 Descending Washington Center
Sun 05:37:13 PM 38.7267 -76.4539 36° Northeast 413 475 26,100 -1,169 Descending Washington Center
Sun 05:38:14 PM 38.8189 -76.4042 23° Northeast 384 442 25,500 -934 Descending Washington Center
Sun 05:39:15 PM 38.9089 -76.3572 22° Northeast 359 413 24,200 -738 Descending Washington Center
Sun 05:40:16 PM 38.9986 -76.3100 22° Northeast 349 402 24,000 -66 Descending Washington Center
Sun 05:42:00 PM 39.1793 -76.1473 35° Northeast  Level FlightAware
Sun 05:42:16 PM 39.1681 -76.2072 35° Northeast 337 388 24,000  Level Washington Center
Sun 05:43:14 PM 39.2372 -76.1328 40° Northeast 337 388 24,000 -51 Level Washington Center
Sun 05:44:14 PM 39.3106 -76.0611 37° Northeast 342 394 23,900 -800 Descending Washington Center
Sun 05:45:14 PM 39.3817 -75.9861 39° Northeast 337 388 22,400 -1,587 Descending Washington Center
Sun 05:46:15 PM 39.4569 -75.9167 35° Northeast 332 382 20,700 -1,736 Descending Washington Center
Sun 05:47:15 PM 39.5300 -75.8472 36° Northeast 327 376 18,900 -1,755 Descending Washington Center
Sun 05:49:23 PM 39.7000 -75.7000 34° Northeast 315 362 15,200 -1,714 Descending Philadelphia TRACON
Sun 05:50:17 PM 39.7667 -75.6333 38° Northeast 311 358 13,700 -1,050 Descending Philadelphia TRACON
Sun 05:51:23 PM 39.8333 -75.5667 38° Northeast 301 346 13,100 -333 Descending Philadelphia TRACON
Sun 05:52:23 PM 39.9167 -75.5500 North 307 353 13,000  Descending Philadelphia TRACON
Sun 05:53:23 PM 40.0000 -75.5667 351° North 312 359 13,100 50 Climbing Philadelphia TRACON
Sun 05:54:23 PM 40.0833 -75.6000 343° North 312 359 13,100 -200 Level Philadelphia TRACON
Sun 05:55:23 PM 40.1500 -75.5333 37° Northeast 291 335 12,700 -667 Descending Philadelphia TRACON
Sun 05:57:23 PM 40.2000 -75.3333 72° East 297 342 11,100 -552 Descending Philadelphia TRACON
Sun 05:58:17 PM 40.2333 -75.2500 62° Northeast 290 334 11,100 -885 Level Philadelphia TRACON
Sun 06:00:00 PM 40.3505 -75.0276 49° Northeast  Level Estimated
Sun 06:01:00 PM 40.3667 -75.0333 49° Northeast 283 326 7,900  Level New TRACON
Sun 06:02:00 PM 40.4333 -74.9667 37° Northeast 275 316 6,900 -1,333 Descending New TRACON
Sun 06:03:06 PM 40.4833 -74.8833 52° Northeast 266 306 5,100 -1,450 Descending New TRACON
Sun 06:04:00 PM 40.5167 -74.8333 49° Northeast 256 295 4,000 -579 Descending New TRACON
Sun 06:05:00 PM 40.5667 -74.7500 52° Northeast 256 295 4,000  Level New TRACON
Sun 06:06:00 PM 40.6333 -74.7000 30° Northeast 257 296 4,000  Level New TRACON
Sun 06:07:00 PM 40.7000 -74.6667 21° North 262 302 4,000  Level New TRACON
Sun 06:09:00 PM 40.8167 -74.5667 33° Northeast 251 289 4,000 -67 Level New TRACON
Sun 06:10:00 PM 40.8500 -74.5000 57° Northeast 246 283 3,800 -500 Descending New TRACON
Sun 06:11:00 PM 40.9000 -74.4333 45° Northeast 246 283 3,000 -400 Descending New TRACON
Sun 06:12:00 PM 40.9500 -74.3667 45° Northeast 256 295 3,000  Level New TRACON
Sun 06:13:00 PM 40.9667 -74.2833 75° East 215 247 3,000 -50 Level New TRACON
Sun 06:14:00 PM 40.9833 -74.2167 72° East 179 206 2,900 -500 Descending New TRACON
Sun 06:15:00 PM 41.0000 -74.1500 72° East 173 199 2,000 -450 Descending New TRACON
Sun 06:16:00 PM 41.0167 -74.1000 66° East 177 204 2,000  Level New TRACON
Sun 06:17:00 PM 40.9667 -74.0667 153° Southeast 165 190 2,000 -250 Level New TRACON
Sun 06:18:00 PM 40.9333 -74.0500 159° South 170 196 1,500 -650 Descending New TRACON
Sun 06:19:00 PM 40.8833 -74.0500 180° South 122 140 700 -800 Descending New TRACON

Login

Don't have an account? Register now (free) for customized features, flight alerts, and more!